sensor_id;sensor_type;location;lat;lon;timestamp;P1;durP1;ratioP1;P2;durP2;ratioP2
51618;SDS011;38518;53.164;5.430;2023-04-03T00:02:07;4.20;;;1.70;;
51618;SDS011;38518;53.164;5.430;2023-04-03T00:04:33;3.42;;;1.63;;
51618;SDS011;38518;53.164;5.430;2023-04-03T00:06:58;4.68;;;2.00;;
51618;SDS011;38518;53.164;5.430;2023-04-03T00:09:24;4.60;;;2.03;;
51618;SDS011;38518;53.164;5.430;2023-04-03T00:11:50;6.03;;;2.13;;
51618;SDS011;38518;53.164;5.430;2023-04-03T00:14:15;2.75;;;1.77;;
51618;SDS011;38518;53.164;5.430;2023-04-03T00:16:41;2.50;;;1.48;;
51618;SDS011;38518;53.164;5.430;2023-04-03T00:19:07;6.18;;;1.90;;
51618;SDS011;38518;53.164;5.430;2023-04-03T00:21:33;4.53;;;1.65;;
51618;SDS011;38518;53.164;5.430;2023-04-03T00:23:59;4.60;;;1.80;;
51618;SDS011;38518;53.164;5.430;2023-04-03T00:26:25;4.28;;;2.10;;
51618;SDS011;38518;53.164;5.430;2023-04-03T00:28:50;3.13;;;1.80;;
51618;SDS011;38518;53.164;5.430;2023-04-03T00:31:16;3.75;;;1.85;;
51618;SDS011;38518;53.164;5.430;2023-04-03T00:33:42;4.75;;;2.28;;
51618;SDS011;38518;53.164;5.430;2023-04-03T00:36:08;4.50;;;1.70;;
51618;SDS011;38518;53.164;5.430;2023-04-03T00:38:36;5.38;;;2.03;;
51618;SDS011;38518;53.164;5.430;2023-04-03T00:41:02;3.85;;;1.95;;
51618;SDS011;38518;53.164;5.430;2023-04-03T00:43:28;2.83;;;1.60;;
51618;SDS011;38518;53.164;5.430;2023-04-03T00:45:55;3.67;;;1.65;;
51618;SDS011;38518;53.164;5.430;2023-04-03T00:50:47;4.00;;;1.95;;
51618;SDS011;38518;53.164;5.430;2023-04-03T00:53:16;3.88;;;2.03;;
51618;SDS011;38518;53.164;5.430;2023-04-03T00:55:47;3.83;;;1.90;;
51618;SDS011;38518;53.164;5.430;2023-04-03T00:58:15;3.20;;;2.05;;
51618;SDS011;38518;53.164;5.430;2023-04-03T01:00:48;3.85;;;2.00;;
51618;SDS011;38518;53.164;5.430;2023-04-03T01:03:21;5.85;;;2.10;;
51618;SDS011;38518;53.164;5.430;2023-04-03T01:05:47;5.47;;;2.28;;
51618;SDS011;38518;53.164;5.430;2023-04-03T01:08:12;4.15;;;2.15;;
51618;SDS011;38518;53.164;5.430;2023-04-03T01:10:38;4.22;;;2.88;;
51618;SDS011;38518;53.164;5.430;2023-04-03T01:13:17;3.97;;;1.92;;
51618;SDS011;38518;53.164;5.430;2023-04-03T01:15:48;4.22;;;2.47;;
51618;SDS011;38518;53.164;5.430;2023-04-03T01:18:13;4.25;;;2.28;;
51618;SDS011;38518;53.164;5.430;2023-04-03T01:23:32;5.00;;;2.47;;
51618;SDS011;38518;53.164;5.430;2023-04-03T01:26:05;5.28;;;2.17;;
51618;SDS011;38518;53.164;5.430;2023-04-03T01:28:33;3.13;;;2.40;;
51618;SDS011;38518;53.164;5.430;2023-04-03T01:31:10;5.20;;;2.55;;
51618;SDS011;38518;53.164;5.430;2023-04-03T01:34:03;4.70;;;2.30;;
51618;SDS011;38518;53.164;5.430;2023-04-03T01:36:30;5.35;;;2.35;;
51618;SDS011;38518;53.164;5.430;2023-04-03T01:38:57;2.72;;;2.13;;
51618;SDS011;38518;53.164;5.430;2023-04-03T01:41:24;4.47;;;2.88;;
51618;SDS011;38518;53.164;5.430;2023-04-03T01:43:50;3.15;;;2.28;;
51618;SDS011;38518;53.164;5.430;2023-04-03T01:46:16;5.10;;;2.42;;
51618;SDS011;38518;53.164;5.430;2023-04-03T01:48:42;5.53;;;2.58;;
51618;SDS011;38518;53.164;5.430;2023-04-03T01:51:08;3.78;;;2.38;;
51618;SDS011;38518;53.164;5.430;2023-04-03T01:53:34;4.35;;;2.45;;
51618;SDS011;38518;53.164;5.430;2023-04-03T01:56:00;3.50;;;2.20;;
51618;SDS011;38518;53.164;5.430;2023-04-03T01:58:26;4.57;;;1.90;;
51618;SDS011;38518;53.164;5.430;2023-04-03T02:00:51;2.65;;;2.10;;
51618;SDS011;38518;53.164;5.430;2023-04-03T02:03:17;4.35;;;2.10;;
51618;SDS011;38518;53.164;5.430;2023-04-03T02:05:43;3.25;;;2.20;;
51618;SDS011;38518;53.164;5.430;2023-04-03T02:08:09;5.70;;;2.35;;
51618;SDS011;38518;53.164;5.430;2023-04-03T02:10:35;5.20;;;2.30;;
51618;SDS011;38518;53.164;5.430;2023-04-03T02:13:01;3.92;;;2.30;;
51618;SDS011;38518;53.164;5.430;2023-04-03T02:15:27;4.15;;;2.35;;
51618;SDS011;38518;53.164;5.430;2023-04-03T02:17:53;5.65;;;2.25;;
51618;SDS011;38518;53.164;5.430;2023-04-03T02:20:18;5.25;;;2.40;;
51618;SDS011;38518;53.164;5.430;2023-04-03T02:22:44;2.80;;;1.88;;
51618;SDS011;38518;53.164;5.430;2023-04-03T02:25:10;5.30;;;2.10;;
51618;SDS011;38518;53.164;5.430;2023-04-03T02:27:36;4.25;;;2.33;;
51618;SDS011;38518;53.164;5.430;2023-04-03T02:30:02;4.78;;;2.00;;
51618;SDS011;38518;53.164;5.430;2023-04-03T02:32:29;4.50;;;1.83;;
51618;SDS011;38518;53.164;5.430;2023-04-03T02:34:55;5.88;;;1.60;;
51618;SDS011;38518;53.164;5.430;2023-04-03T02:37:21;4.22;;;2.20;;
51618;SDS011;38518;53.164;5.430;2023-04-03T02:39:46;2.55;;;1.83;;
51618;SDS011;38518;53.164;5.430;2023-04-03T02:42:12;5.78;;;2.05;;
51618;SDS011;38518;53.164;5.430;2023-04-03T02:44:38;3.70;;;1.90;;
51618;SDS011;38518;53.164;5.430;2023-04-03T02:47:04;4.13;;;1.83;;
51618;SDS011;38518;53.164;5.430;2023-04-03T02:49:31;5.05;;;1.70;;
51618;SDS011;38518;53.164;5.430;2023-04-03T02:51:59;4.05;;;1.90;;
51618;SDS011;38518;53.164;5.430;2023-04-03T02:54:26;4.57;;;2.00;;
51618;SDS011;38518;53.164;5.430;2023-04-03T02:56:55;3.58;;;1.90;;
51618;SDS011;38518;53.164;5.430;2023-04-03T02:59:24;4.10;;;2.00;;
51618;SDS011;38518;53.164;5.430;2023-04-03T03:01:50;3.20;;;2.00;;
51618;SDS011;38518;53.164;5.430;2023-04-03T03:04:20;5.50;;;1.73;;
51618;SDS011;38518;53.164;5.430;2023-04-03T03:06:48;3.58;;;2.05;;
51618;SDS011;38518;53.164;5.430;2023-04-03T03:09:15;4.35;;;1.90;;
51618;SDS011;38518;53.164;5.430;2023-04-03T03:11:43;4.18;;;1.90;;
51618;SDS011;38518;53.164;5.430;2023-04-03T03:14:11;3.60;;;1.95;;
51618;SDS011;38518;53.164;5.430;2023-04-03T03:16:38;4.47;;;1.83;;
51618;SDS011;38518;53.164;5.430;2023-04-03T03:19:05;6.00;;;2.00;;
51618;SDS011;38518;53.164;5.430;2023-04-03T03:21:31;2.97;;;1.90;;
51618;SDS011;38518;53.164;5.430;2023-04-03T03:23:57;3.25;;;1.80;;
51618;SDS011;38518;53.164;5.430;2023-04-03T03:26:24;6.32;;;1.98;;
51618;SDS011;38518;53.164;5.430;2023-04-03T03:28:52;3.88;;;1.80;;
51618;SDS011;38518;53.164;5.430;2023-04-03T03:31:17;3.35;;;2.00;;
51618;SDS011;38518;53.164;5.430;2023-04-03T03:33:43;4.50;;;2.15;;
51618;SDS011;38518;53.164;5.430;2023-04-03T03:36:09;3.97;;;1.90;;
51618;SDS011;38518;53.164;5.430;2023-04-03T03:38:35;4.40;;;1.90;;
51618;SDS011;38518;53.164;5.430;2023-04-03T03:41:01;4.22;;;2.25;;
51618;SDS011;38518;53.164;5.430;2023-04-03T03:43:27;4.57;;;2.47;;
51618;SDS011;38518;53.164;5.430;2023-04-03T03:45:53;4.38;;;2.10;;
51618;SDS011;38518;53.164;5.430;2023-04-03T03:48:20;6.72;;;2.17;;
51618;SDS011;38518;53.164;5.430;2023-04-03T03:50:46;3.58;;;1.95;;
51618;SDS011;38518;53.164;5.430;2023-04-03T03:53:13;4.47;;;2.25;;
51618;SDS011;38518;53.164;5.430;2023-04-03T03:55:39;6.47;;;1.98;;
51618;SDS011;38518;53.164;5.430;2023-04-03T03:58:06;6.43;;;2.15;;
51618;SDS011;38518;53.164;5.430;2023-04-03T04:00:31;4.97;;;2.13;;
51618;SDS011;38518;53.164;5.430;2023-04-03T04:02:57;5.07;;;1.85;;
51618;SDS011;38518;53.164;5.430;2023-04-03T04:05:23;4.32;;;1.98;;
51618;SDS011;38518;53.164;5.430;2023-04-03T04:07:49;5.95;;;2.20;;
51618;SDS011;38518;53.164;5.430;2023-04-03T04:10:14;5.55;;;2.33;;
51618;SDS011;38518;53.164;5.430;2023-04-03T04:12:40;6.13;;;2.20;;
51618;SDS011;38518;53.164;5.430;2023-04-03T04:15:06;4.40;;;1.95;;
51618;SDS011;38518;53.164;5.430;2023-04-03T04:17:32;6.78;;;2.13;;
51618;SDS011;38518;53.164;5.430;2023-04-03T04:20:00;5.43;;;2.10;;
51618;SDS011;38518;53.164;5.430;2023-04-03T04:22:27;6.88;;;2.45;;
51618;SDS011;38518;53.164;5.430;2023-04-03T04:24:53;5.43;;;2.20;;
51618;SDS011;38518;53.164;5.430;2023-04-03T04:27:18;4.97;;;2.38;;
51618;SDS011;38518;53.164;5.430;2023-04-03T04:29:44;4.22;;;2.00;;
51618;SDS011;38518;53.164;5.430;2023-04-03T04:32:10;4.75;;;2.30;;
51618;SDS011;38518;53.164;5.430;2023-04-03T04:34:35;6.20;;;2.40;;
51618;SDS011;38518;53.164;5.430;2023-04-03T04:37:01;4.00;;;2.63;;
51618;SDS011;38518;53.164;5.430;2023-04-03T04:39:27;4.68;;;2.30;;
51618;SDS011;38518;53.164;5.430;2023-04-03T04:41:53;3.90;;;2.20;;
51618;SDS011;38518;53.164;5.430;2023-04-03T04:44:18;4.97;;;2.30;;
51618;SDS011;38518;53.164;5.430;2023-04-03T04:46:45;5.05;;;2.33;;
51618;SDS011;38518;53.164;5.430;2023-04-03T04:49:10;4.03;;;2.10;;
51618;SDS011;38518;53.164;5.430;2023-04-03T04:51:36;4.35;;;2.38;;
51618;SDS011;38518;53.164;5.430;2023-04-03T04:54:02;4.40;;;2.00;;
51618;SDS011;38518;53.164;5.430;2023-04-03T04:56:27;3.97;;;1.98;;
51618;SDS011;38518;53.164;5.430;2023-04-03T04:58:53;8.05;;;2.30;;
51618;SDS011;38518;53.164;5.430;2023-04-03T05:01:19;7.82;;;2.45;;
51618;SDS011;38518;53.164;5.430;2023-04-03T05:03:45;4.03;;;2.17;;
51618;SDS011;38518;53.164;5.430;2023-04-03T05:06:10;4.43;;;2.20;;
51618;SDS011;38518;53.164;5.430;2023-04-03T05:08:36;6.65;;;2.60;;
51618;SDS011;38518;53.164;5.430;2023-04-03T05:11:02;4.53;;;2.28;;
51618;SDS011;38518;53.164;5.430;2023-04-03T05:13:28;7.25;;;2.70;;
51618;SDS011;38518;53.164;5.430;2023-04-03T05:15:53;5.78;;;2.50;;
51618;SDS011;38518;53.164;5.430;2023-04-03T05:18:19;4.63;;;2.28;;
51618;SDS011;38518;53.164;5.430;2023-04-03T05:20:45;7.30;;;2.70;;
51618;SDS011;38518;53.164;5.430;2023-04-03T05:23:13;4.18;;;2.50;;
51618;SDS011;38518;53.164;5.430;2023-04-03T05:25:38;4.22;;;2.30;;
51618;SDS011;38518;53.164;5.430;2023-04-03T05:28:04;5.93;;;2.42;;
51618;SDS011;38518;53.164;5.430;2023-04-03T05:30:30;3.75;;;2.00;;
51618;SDS011;38518;53.164;5.430;2023-04-03T05:32:56;7.30;;;2.60;;
51618;SDS011;38518;53.164;5.430;2023-04-03T05:35:21;6.45;;;2.80;;
51618;SDS011;38518;53.164;5.430;2023-04-03T05:37:47;4.88;;;2.42;;
51618;SDS011;38518;53.164;5.430;2023-04-03T05:40:13;5.55;;;2.65;;
51618;SDS011;38518;53.164;5.430;2023-04-03T05:42:39;4.70;;;2.08;;
51618;SDS011;38518;53.164;5.430;2023-04-03T05:45:04;7.25;;;2.55;;
51618;SDS011;38518;53.164;5.430;2023-04-03T05:47:31;6.82;;;2.45;;
51618;SDS011;38518;53.164;5.430;2023-04-03T05:49:56;4.47;;;2.50;;
51618;SDS011;38518;53.164;5.430;2023-04-03T05:52:29;7.63;;;2.60;;
51618;SDS011;38518;53.164;5.430;2023-04-03T05:54:57;7.53;;;2.47;;
51618;SDS011;38518;53.164;5.430;2023-04-03T05:57:22;7.43;;;2.60;;
51618;SDS011;38518;53.164;5.430;2023-04-03T05:59:48;8.00;;;2.83;;
51618;SDS011;38518;53.164;5.430;2023-04-03T06:02:19;4.28;;;2.22;;
51618;SDS011;38518;53.164;5.430;2023-04-03T06:04:48;4.38;;;2.47;;
51618;SDS011;38518;53.164;5.430;2023-04-03T06:07:16;8.07;;;3.50;;
51618;SDS011;38518;53.164;5.430;2023-04-03T06:09:44;6.63;;;2.97;;
51618;SDS011;38518;53.164;5.430;2023-04-03T06:12:10;9.02;;;2.60;;
51618;SDS011;38518;53.164;5.430;2023-04-03T06:14:36;5.93;;;2.53;;
51618;SDS011;38518;53.164;5.430;2023-04-03T06:17:02;7.63;;;2.97;;
51618;SDS011;38518;53.164;5.430;2023-04-03T06:19:29;7.65;;;3.28;;
51618;SDS011;38518;53.164;5.430;2023-04-03T06:22:13;5.25;;;2.67;;
51618;SDS011;38518;53.164;5.430;2023-04-03T06:24:40;8.50;;;2.88;;
51618;SDS011;38518;53.164;5.430;2023-04-03T06:27:06;6.43;;;2.88;;
51618;SDS011;38518;53.164;5.430;2023-04-03T06:29:33;4.55;;;2.90;;
51618;SDS011;38518;53.164;5.430;2023-04-03T06:31:58;4.78;;;2.90;;
51618;SDS011;38518;53.164;5.430;2023-04-03T06:34:24;5.57;;;3.05;;
51618;SDS011;38518;53.164;5.430;2023-04-03T06:36:50;6.38;;;3.20;;
51618;SDS011;38518;53.164;5.430;2023-04-03T06:39:17;6.65;;;2.72;;
51618;SDS011;38518;53.164;5.430;2023-04-03T06:41:50;7.15;;;3.55;;
51618;SDS011;38518;53.164;5.430;2023-04-03T06:44:16;5.35;;;2.65;;
51618;SDS011;38518;53.164;5.430;2023-04-03T06:46:43;5.88;;;2.90;;
51618;SDS011;38518;53.164;5.430;2023-04-03T06:49:10;4.88;;;2.70;;
51618;SDS011;38518;53.164;5.430;2023-04-03T06:51:36;7.40;;;3.20;;
51618;SDS011;38518;53.164;5.430;2023-04-03T06:54:02;6.70;;;2.95;;
51618;SDS011;38518;53.164;5.430;2023-04-03T06:56:29;5.30;;;2.30;;
51618;SDS011;38518;53.164;5.430;2023-04-03T06:58:56;5.28;;;2.67;;
51618;SDS011;38518;53.164;5.430;2023-04-03T07:01:26;5.20;;;2.47;;
51618;SDS011;38518;53.164;5.430;2023-04-03T07:03:53;5.20;;;2.70;;
51618;SDS011;38518;53.164;5.430;2023-04-03T07:06:19;7.63;;;2.92;;
51618;SDS011;38518;53.164;5.430;2023-04-03T07:08:45;6.32;;;3.00;;
51618;SDS011;38518;53.164;5.430;2023-04-03T07:11:13;8.55;;;2.80;;
51618;SDS011;38518;53.164;5.430;2023-04-03T07:13:39;4.78;;;2.72;;
51618;SDS011;38518;53.164;5.430;2023-04-03T07:16:05;4.10;;;2.67;;
51618;SDS011;38518;53.164;5.430;2023-04-03T07:18:32;5.40;;;2.55;;
51618;SDS011;38518;53.164;5.430;2023-04-03T07:20:58;6.10;;;2.95;;
51618;SDS011;38518;53.164;5.430;2023-04-03T07:23:25;5.57;;;2.47;;
51618;SDS011;38518;53.164;5.430;2023-04-03T07:25:51;5.20;;;2.70;;
51618;SDS011;38518;53.164;5.430;2023-04-03T07:28:18;5.63;;;2.80;;
51618;SDS011;38518;53.164;5.430;2023-04-03T07:30:46;5.10;;;2.80;;
51618;SDS011;38518;53.164;5.430;2023-04-03T07:33:14;5.10;;;2.78;;
51618;SDS011;38518;53.164;5.430;2023-04-03T07:35:41;5.93;;;2.60;;
51618;SDS011;38518;53.164;5.430;2023-04-03T07:38:08;6.03;;;2.53;;
51618;SDS011;38518;53.164;5.430;2023-04-03T07:40:34;6.80;;;2.67;;
51618;SDS011;38518;53.164;5.430;2023-04-03T07:43:00;6.00;;;2.60;;
51618;SDS011;38518;53.164;5.430;2023-04-03T07:45:26;5.97;;;2.80;;
51618;SDS011;38518;53.164;5.430;2023-04-03T07:47:52;6.70;;;2.55;;
51618;SDS011;38518;53.164;5.430;2023-04-03T07:50:18;5.45;;;2.53;;
51618;SDS011;38518;53.164;5.430;2023-04-03T07:52:44;5.00;;;2.60;;
51618;SDS011;38518;53.164;5.430;2023-04-03T07:55:10;4.68;;;2.50;;
51618;SDS011;38518;53.164;5.430;2023-04-03T07:57:36;4.05;;;2.38;;
51618;SDS011;38518;53.164;5.430;2023-04-03T08:00:05;5.00;;;2.60;;
51618;SDS011;38518;53.164;5.430;2023-04-03T08:02:31;4.22;;;2.47;;
51618;SDS011;38518;53.164;5.430;2023-04-03T08:04:57;3.97;;;2.38;;
51618;SDS011;38518;53.164;5.430;2023-04-03T08:07:23;5.15;;;2.10;;
51618;SDS011;38518;53.164;5.430;2023-04-03T08:09:50;5.00;;;2.40;;
51618;SDS011;38518;53.164;5.430;2023-04-03T08:12:16;4.90;;;2.40;;
51618;SDS011;38518;53.164;5.430;2023-04-03T08:14:42;4.35;;;2.35;;
51618;SDS011;38518;53.164;5.430;2023-04-03T08:17:08;4.50;;;2.42;;
51618;SDS011;38518;53.164;5.430;2023-04-03T08:19:37;5.18;;;2.25;;
51618;SDS011;38518;53.164;5.430;2023-04-03T08:22:03;4.35;;;2.17;;
51618;SDS011;38518;53.164;5.430;2023-04-03T08:24:30;5.63;;;1.80;;
51618;SDS011;38518;53.164;5.430;2023-04-03T08:26:56;5.70;;;2.38;;
51618;SDS011;38518;53.164;5.430;2023-04-03T08:29:22;5.28;;;2.50;;
51618;SDS011;38518;53.164;5.430;2023-04-03T08:31:49;4.97;;;2.42;;
51618;SDS011;38518;53.164;5.430;2023-04-03T08:34:15;3.20;;;2.10;;
51618;SDS011;38518;53.164;5.430;2023-04-03T08:36:41;4.32;;;2.30;;
51618;SDS011;38518;53.164;5.430;2023-04-03T08:39:07;4.93;;;2.30;;
51618;SDS011;38518;53.164;5.430;2023-04-03T08:41:37;4.05;;;2.08;;
51618;SDS011;38518;53.164;5.430;2023-04-03T08:49:49;4.43;;;2.00;;
51618;SDS011;38518;53.164;5.430;2023-04-03T08:52:33;4.72;;;1.75;;
51618;SDS011;38518;53.164;5.430;2023-04-03T08:58:03;3.58;;;2.00;;
51618;SDS011;38518;53.164;5.430;2023-04-03T09:03:24;3.00;;;1.65;;
51618;SDS011;38518;53.164;5.430;2023-04-03T09:05:54;3.20;;;1.75;;
51618;SDS011;38518;53.164;5.430;2023-04-03T09:08:37;3.63;;;1.70;;
51618;SDS011;38518;53.164;5.430;2023-04-03T09:11:19;3.00;;;1.63;;
51618;SDS011;38518;53.164;5.430;2023-04-03T09:16:56;3.22;;;1.90;;
51618;SDS011;38518;53.164;5.430;2023-04-03T09:24:46;5.15;;;1.60;;
51618;SDS011;38518;53.164;5.430;2023-04-03T09:27:17;4.60;;;1.60;;
51618;SDS011;38518;53.164;5.430;2023-04-03T09:29:43;3.95;;;1.90;;
51618;SDS011;38518;53.164;5.430;2023-04-03T09:32:44;3.05;;;1.60;;
51618;SDS011;38518;53.164;5.430;2023-04-03T09:37:45;2.47;;;1.70;;
51618;SDS011;38518;53.164;5.430;2023-04-03T09:42:54;2.63;;;1.45;;
51618;SDS011;38518;53.164;5.430;2023-04-03T09:45:30;2.72;;;1.40;;
51618;SDS011;38518;53.164;5.430;2023-04-03T09:48:12;3.13;;;1.40;;
51618;SDS011;38518;53.164;5.430;2023-04-03T09:59:24;2.92;;;1.40;;
51618;SDS011;38518;53.164;5.430;2023-04-03T10:01:39;1.88;;;1.20;;
51618;SDS011;38518;53.164;5.430;2023-04-03T10:09:18;2.22;;;1.17;;
51618;SDS011;38518;53.164;5.430;2023-04-03T10:11:59;2.03;;;1.20;;
51618;SDS011;38518;53.164;5.430;2023-04-03T10:14:35;2.28;;;1.20;;
51618;SDS011;38518;53.164;5.430;2023-04-03T10:17:27;3.20;;;1.55;;
51618;SDS011;38518;53.164;5.430;2023-04-03T10:20:27;2.83;;;1.13;;
51618;SDS011;38518;53.164;5.430;2023-04-03T10:22:55;2.07;;;1.10;;
51618;SDS011;38518;53.164;5.430;2023-04-03T10:39:18;1.83;;;1.03;;
51618;SDS011;38518;53.164;5.430;2023-04-03T10:42:46;3.35;;;1.40;;
51618;SDS011;38518;53.164;5.430;2023-04-03T10:55:58;2.85;;;1.00;;
51618;SDS011;38518;53.164;5.430;2023-04-03T10:58:34;2.60;;;1.25;;
51618;SDS011;38518;53.164;5.430;2023-04-03T11:01:08;2.88;;;1.05;;
51618;SDS011;38518;53.164;5.430;2023-04-03T11:03:43;3.80;;;1.50;;
51618;SDS011;38518;53.164;5.430;2023-04-03T11:06:12;2.90;;;1.10;;
51618;SDS011;38518;53.164;5.430;2023-04-03T11:08:45;2.90;;;1.17;;
51618;SDS011;38518;53.164;5.430;2023-04-03T11:11:32;2.17;;;1.05;;
51618;SDS011;38518;53.164;5.430;2023-04-03T11:19:11;2.58;;;1.27;;
51618;SDS011;38518;53.164;5.430;2023-04-03T11:22:01;3.40;;;1.40;;
51618;SDS011;38518;53.164;5.430;2023-04-03T11:24:33;1.92;;;1.10;;
51618;SDS011;38518;53.164;5.430;2023-04-03T11:27:03;1.83;;;1.00;;
51618;SDS011;38518;53.164;5.430;2023-04-03T11:29:39;3.45;;;1.10;;
51618;SDS011;38518;53.164;5.430;2023-04-03T11:35:07;1.83;;;1.00;;
51618;SDS011;38518;53.164;5.430;2023-04-03T11:37:55;1.70;;;1.08;;
51618;SDS011;38518;53.164;5.430;2023-04-03T11:40:22;2.05;;;1.02;;
51618;SDS011;38518;53.164;5.430;2023-04-03T11:42:55;2.03;;;0.97;;
51618;SDS011;38518;53.164;5.430;2023-04-03T11:45:50;2.58;;;1.20;;
51618;SDS011;38518;53.164;5.430;2023-04-03T11:51:42;2.72;;;1.50;;
51618;SDS011;38518;53.164;5.430;2023-04-03T11:53:54;2.92;;;1.20;;
51618;SDS011;38518;53.164;5.430;2023-04-03T11:56:40;2.50;;;1.27;;
51618;SDS011;38518;53.164;5.430;2023-04-03T12:04:17;2.78;;;1.20;;
51618;SDS011;38518;53.164;5.430;2023-04-03T12:11:59;4.50;;;1.65;;
51618;SDS011;38518;53.164;5.430;2023-04-03T12:14:45;1.90;;;1.00;;
51618;SDS011;38518;53.164;5.430;2023-04-03T12:17:18;2.50;;;1.20;;
51618;SDS011;38518;53.164;5.430;2023-04-03T12:19:48;1.90;;;1.00;;
51618;SDS011;38518;53.164;5.430;2023-04-03T12:22:15;1.95;;;1.20;;
51618;SDS011;38518;53.164;5.430;2023-04-03T12:24:46;2.63;;;1.20;;
51618;SDS011;38518;53.164;5.430;2023-04-03T12:29:51;1.92;;;1.05;;
51618;SDS011;38518;53.164;5.430;2023-04-03T12:40:26;2.80;;;1.33;;
51618;SDS011;38518;53.164;5.430;2023-04-03T12:45:29;2.03;;;1.27;;
51618;SDS011;38518;53.164;5.430;2023-04-03T12:48:18;3.47;;;1.30;;
51618;SDS011;38518;53.164;5.430;2023-04-03T12:50:51;2.63;;;1.27;;
51618;SDS011;38518;53.164;5.430;2023-04-03T12:53:24;5.63;;;1.50;;
51618;SDS011;38518;53.164;5.430;2023-04-03T12:58:51;3.15;;;1.20;;
51618;SDS011;38518;53.164;5.430;2023-04-03T13:01:25;2.90;;;1.50;;
51618;SDS011;38518;53.164;5.430;2023-04-03T13:03:52;2.35;;;1.20;;
51618;SDS011;38518;53.164;5.430;2023-04-03T13:06:39;1.83;;;1.10;;
51618;SDS011;38518;53.164;5.430;2023-04-03T13:14:37;1.95;;;1.20;;
51618;SDS011;38518;53.164;5.430;2023-04-03T13:17:06;2.88;;;1.10;;
51618;SDS011;38518;53.164;5.430;2023-04-03T13:19:38;2.15;;;1.33;;
51618;SDS011;38518;53.164;5.430;2023-04-03T13:22:26;2.78;;;1.17;;
51618;SDS011;38518;53.164;5.430;2023-04-03T13:25:09;2.20;;;1.20;;
51618;SDS011;38518;53.164;5.430;2023-04-03T13:27:37;1.70;;;1.10;;
51618;SDS011;38518;53.164;5.430;2023-04-03T13:30:17;2.15;;;1.10;;
51618;SDS011;38518;53.164;5.430;2023-04-03T13:32:48;2.53;;;1.20;;
51618;SDS011;38518;53.164;5.430;2023-04-03T13:38:00;2.63;;;1.10;;
51618;SDS011;38518;53.164;5.430;2023-04-03T13:40:29;2.20;;;1.10;;
51618;SDS011;38518;53.164;5.430;2023-04-03T13:43:03;2.50;;;1.17;;
51618;SDS011;38518;53.164;5.430;2023-04-03T13:45:53;2.20;;;1.50;;
51618;SDS011;38518;53.164;5.430;2023-04-03T13:48:24;2.45;;;1.40;;
51618;SDS011;38518;53.164;5.430;2023-04-03T13:50:55;2.95;;;1.50;;
51618;SDS011;38518;53.164;5.430;2023-04-03T13:53:30;6.00;;;1.45;;
51618;SDS011;38518;53.164;5.430;2023-04-03T13:58:29;3.25;;;1.70;;
51618;SDS011;38518;53.164;5.430;2023-04-03T14:03:58;2.70;;;1.20;;
51618;SDS011;38518;53.164;5.430;2023-04-03T14:06:25;3.55;;;1.27;;
51618;SDS011;38518;53.164;5.430;2023-04-03T14:08:51;3.65;;;1.40;;
51618;SDS011;38518;53.164;5.430;2023-04-03T14:11:19;2.83;;;1.48;;
51618;SDS011;38518;53.164;5.430;2023-04-03T14:13:50;2.30;;;1.50;;
51618;SDS011;38518;53.164;5.430;2023-04-03T14:16:20;2.85;;;1.38;;
51618;SDS011;38518;53.164;5.430;2023-04-03T14:18:48;2.30;;;1.20;;
51618;SDS011;38518;53.164;5.430;2023-04-03T14:21:16;4.05;;;1.33;;
51618;SDS011;38518;53.164;5.430;2023-04-03T14:23:43;2.47;;;1.45;;
51618;SDS011;38518;53.164;5.430;2023-04-03T14:26:17;2.92;;;1.45;;
51618;SDS011;38518;53.164;5.430;2023-04-03T14:28:46;2.95;;;1.50;;
51618;SDS011;38518;53.164;5.430;2023-04-03T14:31:14;2.40;;;1.48;;
51618;SDS011;38518;53.164;5.430;2023-04-03T14:33:41;2.92;;;1.38;;
51618;SDS011;38518;53.164;5.430;2023-04-03T14:36:17;2.53;;;1.55;;
51618;SDS011;38518;53.164;5.430;2023-04-03T14:38:52;2.40;;;1.30;;
51618;SDS011;38518;53.164;5.430;2023-04-03T14:41:19;5.45;;;1.80;;
51618;SDS011;38518;53.164;5.430;2023-04-03T14:43:47;2.95;;;1.63;;
51618;SDS011;38518;53.164;5.430;2023-04-03T14:46:47;8.77;;;1.88;;
51618;SDS011;38518;53.164;5.430;2023-04-03T14:49:14;3.25;;;1.58;;
51618;SDS011;38518;53.164;5.430;2023-04-03T14:51:43;2.60;;;1.52;;
51618;SDS011;38518;53.164;5.430;2023-04-03T14:54:13;3.50;;;1.63;;
51618;SDS011;38518;53.164;5.430;2023-04-03T14:56:41;3.28;;;1.38;;
51618;SDS011;38518;53.164;5.430;2023-04-03T14:59:13;3.47;;;1.58;;
51618;SDS011;38518;53.164;5.430;2023-04-03T15:01:43;4.07;;;1.50;;
51618;SDS011;38518;53.164;5.430;2023-04-03T15:04:13;2.92;;;1.60;;
51618;SDS011;38518;53.164;5.430;2023-04-03T15:06:44;3.40;;;1.55;;
51618;SDS011;38518;53.164;5.430;2023-04-03T15:11:47;3.58;;;1.60;;
51618;SDS011;38518;53.164;5.430;2023-04-03T15:14:13;3.53;;;1.50;;
51618;SDS011;38518;53.164;5.430;2023-04-03T15:16:39;2.70;;;1.52;;
51618;SDS011;38518;53.164;5.430;2023-04-03T15:19:05;2.38;;;1.60;;
51618;SDS011;38518;53.164;5.430;2023-04-03T15:21:31;2.78;;;1.73;;
51618;SDS011;38518;53.164;5.430;2023-04-03T15:23:57;3.25;;;1.50;;
51618;SDS011;38518;53.164;5.430;2023-04-03T15:26:22;3.85;;;1.50;;
51618;SDS011;38518;53.164;5.430;2023-04-03T15:28:49;2.47;;;1.60;;
51618;SDS011;38518;53.164;5.430;2023-04-03T15:31:15;4.57;;;1.60;;
51618;SDS011;38518;53.164;5.430;2023-04-03T15:33:41;3.75;;;1.50;;
51618;SDS011;38518;53.164;5.430;2023-04-03T15:36:07;3.80;;;1.88;;
51618;SDS011;38518;53.164;5.430;2023-04-03T15:38:33;2.35;;;1.70;;
51618;SDS011;38518;53.164;5.430;2023-04-03T15:40:59;2.80;;;1.52;;
51618;SDS011;38518;53.164;5.430;2023-04-03T15:43:25;3.20;;;1.60;;
51618;SDS011;38518;53.164;5.430;2023-04-03T15:45:51;3.20;;;1.65;;
51618;SDS011;38518;53.164;5.430;2023-04-03T15:48:17;2.60;;;1.48;;
51618;SDS011;38518;53.164;5.430;2023-04-03T15:50:44;2.78;;;1.70;;
51618;SDS011;38518;53.164;5.430;2023-04-03T15:53:10;2.45;;;1.50;;
51618;SDS011;38518;53.164;5.430;2023-04-03T15:55:36;2.33;;;1.50;;
51618;SDS011;38518;53.164;5.430;2023-04-03T15:58:03;2.70;;;1.50;;
51618;SDS011;38518;53.164;5.430;2023-04-03T16:00:29;2.47;;;1.70;;
51618;SDS011;38518;53.164;5.430;2023-04-03T16:02:58;3.55;;;1.90;;
51618;SDS011;38518;53.164;5.430;2023-04-03T16:05:29;5.03;;;2.00;;
51618;SDS011;38518;53.164;5.430;2023-04-03T16:07:55;3.38;;;2.17;;
51618;SDS011;38518;53.164;5.430;2023-04-03T16:10:22;3.38;;;1.90;;
51618;SDS011;38518;53.164;5.430;2023-04-03T16:12:47;4.35;;;2.50;;
51618;SDS011;38518;53.164;5.430;2023-04-03T16:15:13;4.45;;;2.30;;
51618;SDS011;38518;53.164;5.430;2023-04-03T16:17:39;5.03;;;1.90;;
51618;SDS011;38518;53.164;5.430;2023-04-03T16:20:09;3.90;;;2.03;;
51618;SDS011;38518;53.164;5.430;2023-04-03T16:22:36;4.53;;;2.35;;
51618;SDS011;38518;53.164;5.430;2023-04-03T16:25:03;3.78;;;2.00;;
51618;SDS011;38518;53.164;5.430;2023-04-03T16:27:30;4.63;;;1.90;;
51618;SDS011;38518;53.164;5.430;2023-04-03T16:29:56;3.55;;;2.00;;
51618;SDS011;38518;53.164;5.430;2023-04-03T16:32:23;3.40;;;2.05;;
51618;SDS011;38518;53.164;5.430;2023-04-03T16:34:51;7.30;;;2.05;;
51618;SDS011;38518;53.164;5.430;2023-04-03T16:37:17;3.80;;;1.80;;
51618;SDS011;38518;53.164;5.430;2023-04-03T16:39:43;2.50;;;1.63;;
51618;SDS011;38518;53.164;5.430;2023-04-03T16:42:08;2.58;;;1.80;;
51618;SDS011;38518;53.164;5.430;2023-04-03T16:44:35;3.30;;;2.17;;
51618;SDS011;38518;53.164;5.430;2023-04-03T16:47:01;3.88;;;1.98;;
51618;SDS011;38518;53.164;5.430;2023-04-03T16:49:28;3.67;;;1.63;;
51618;SDS011;38518;53.164;5.430;2023-04-03T16:51:58;3.50;;;1.70;;
51618;SDS011;38518;53.164;5.430;2023-04-03T16:54:24;3.33;;;1.80;;
51618;SDS011;38518;53.164;5.430;2023-04-03T16:56:50;2.35;;;1.50;;
51618;SDS011;38518;53.164;5.430;2023-04-03T16:59:15;4.32;;;1.80;;
51618;SDS011;38518;53.164;5.430;2023-04-03T17:01:41;5.15;;;1.33;;